Cedaredge, CO

8:55 AM MDT on October 30, 2014 (GMT -0600)
Coon Creek | Change Station
CLOSE
Current Station
Personal Weather Station
Location: Mesa, CO
Elevation: 8050 ft
Nearby Weather Stations

Elev 8050 ft 39.09 °N, 108.10 °W | Updated 2 minutes ago

Clear
Clear
32.0 °F
Feels Like 32 °F
N
1.0
Wind Variable Wind from North

Today
High -- | Low -- °F
--% Chance of Precip.
Yesterday
High -- | Low -- °F
Precip. -- in
7:36 AM 6:13 PM
Waxing Crescent, 44% visible
Pressure 30.36 in
Visibility 10.0 miles
Clouds Clear
Windchill 32 °F
Dew Point 18 °F
Humidity 57%
Rainfall 0.00 in
Snow Depth Not available.
UV 0 out of 12
Pollen .70 out of 12
Air Quality Not available.
Flu Activity Not available.
METAR KMTJ 301353Z AUTO 17007KT 10SM CLR 00/M06 A3041 RMK AO2 SLP281 T00001061

More Conditions Fewer Conditions

Pressure 30.36 in
Visibility 10.0 miles
Clouds Clear
Windchill 32 °F
Dew Point 18 °F
Humidity 57%
Rainfall 0.00 in
Snow Depth Not available.
UV 0 out of 12
Pollen .70 out of 12
Air Quality Not available.
Flu Activity Not available.
METAR KMTJ 301353Z AUTO 17007KT 10SM CLR 00/M06 A3041 RMK AO2 SLP281 T00001061

More Conditions Fewer Conditions

10-Day Weather Forecast

Almanac

Astronomy

Oct. 30, 2014 Rise Set
Actual Time
Civil Twilight
Nautical Twilight
Astronomical Twilight
Moon
Length of Visible Light
Length of Day
Tomorrow will be .
, % of the Moon is Illuminated

Today's Extremes

State Highs State Lows

Community

WunderPhotos

Upload Photos

1,766,379 photos uploaded!

WunderBlogs® & News

Nearby

Air Quality

  Air Quality AQ Index Pollutant
Not available.

Snow Depth

Station Depth Elevation

Earthquake Activity

City Distance Mag. Time & Date
Minimum magnitude displayed is 2.5.

Coastal Water Temperatures

Place Temperature

Nearby Weather Stations